sensor_id;sensor_type;location;lat;lon;timestamp;pressure;altitude;pressure_sealevel;temperature;humidity
70053;BME280;57398;52.032;4.376;2023-08-06T00:01:40;98200.03;;;13.78;nan
70053;BME280;57398;52.032;4.376;2023-08-06T00:04:28;98209.69;;;13.78;nan
70053;BME280;57398;52.032;4.376;2023-08-06T00:07:17;98183.31;;;13.79;nan
70053;BME280;57398;52.032;4.376;2023-08-06T00:10:07;98184.84;;;13.80;nan
70053;BME280;57398;52.032;4.376;2023-08-06T00:15:44;98177.34;;;13.79;nan
70053;BME280;57398;52.032;4.376;2023-08-06T00:18:33;98190.06;;;13.80;nan
70053;BME280;57398;52.032;4.376;2023-08-06T00:21:21;98173.34;;;13.81;nan
70053;BME280;57398;52.032;4.376;2023-08-06T00:24:09;98190.53;;;13.82;nan
70053;BME280;57398;52.032;4.376;2023-08-06T00:26:57;98186.53;;;13.85;nan
70053;BME280;57398;52.032;4.376;2023-08-06T00:29:46;98182.88;;;13.86;nan
70053;BME280;57398;52.032;4.376;2023-08-06T00:32:36;98191.75;;;13.85;nan
70053;BME280;57398;52.032;4.376;2023-08-06T00:35:24;98186.53;;;13.85;nan
70053;BME280;57398;52.032;4.376;2023-08-06T00:38:12;98189.47;;;13.83;nan
70053;BME280;57398;52.032;4.376;2023-08-06T00:43:48;98179.78;;;13.84;nan
70053;BME280;57398;52.032;4.376;2023-08-06T00:46:37;98175.63;;;13.83;nan
70053;BME280;57398;52.032;4.376;2023-08-06T00:49:26;98173.50;;;13.85;nan
70053;BME280;57398;52.032;4.376;2023-08-06T00:52:15;98154.94;;;13.87;nan
70053;BME280;57398;52.032;4.376;2023-08-06T00:55:03;98164.59;;;13.86;nan
70053;BME280;57398;52.032;4.376;2023-08-06T00:57:53;98139.56;;;13.85;nan
70053;BME280;57398;52.032;4.376;2023-08-06T01:00:43;98099.03;;;13.88;nan
70053;BME280;57398;52.032;4.376;2023-08-06T01:03:31;98094.91;;;13.87;nan
70053;BME280;57398;52.032;4.376;2023-08-06T01:06:38;98123.47;;;13.92;nan
70053;BME280;57398;52.032;4.376;2023-08-06T01:09:41;98105.94;;;13.92;nan
70053;BME280;57398;52.032;4.376;2023-08-06T01:12:40;98099.22;;;13.91;nan
70053;BME280;57398;52.032;4.376;2023-08-06T01:15:35;98099.22;;;13.91;nan
70053;BME280;57398;52.032;4.376;2023-08-06T01:18:26;98114.09;;;13.91;nan
70053;BME280;57398;52.032;4.376;2023-08-06T01:21:15;98111.50;;;13.91;nan
70053;BME280;57398;52.032;4.376;2023-08-06T01:24:04;98108.09;;;13.90;nan
70053;BME280;57398;52.032;4.376;2023-08-06T01:27:00;98113.78;;;13.92;nan
70053;BME280;57398;52.032;4.376;2023-08-06T01:32:49;98102.88;;;13.90;nan
70053;BME280;57398;52.032;4.376;2023-08-06T01:35:39;98104.44;;;13.91;nan
70053;BME280;57398;52.032;4.376;2023-08-06T01:38:28;98088.47;;;13.93;nan
70053;BME280;57398;52.032;4.376;2023-08-06T01:41:16;98105.19;;;13.92;nan
70053;BME280;57398;52.032;4.376;2023-08-06T01:44:05;98087.38;;;13.94;nan
70053;BME280;57398;52.032;4.376;2023-08-06T01:46:53;98100.72;;;13.92;nan
70053;BME280;57398;52.032;4.376;2023-08-06T01:52:29;98051.63;;;13.94;nan
70053;BME280;57398;52.032;4.376;2023-08-06T01:55:22;98054.22;;;13.94;nan
70053;BME280;57398;52.032;4.376;2023-08-06T01:58:10;98045.94;;;13.92;nan
70053;BME280;57398;52.032;4.376;2023-08-06T02:00:58;98022.44;;;13.92;nan
70053;BME280;57398;52.032;4.376;2023-08-06T02:03:47;98048.25;;;13.94;nan
70053;BME280;57398;52.032;4.376;2023-08-06T02:06:35;98045.94;;;13.92;nan
70053;BME280;57398;52.032;4.376;2023-08-06T02:09:23;98029.50;;;13.92;nan
70053;BME280;57398;52.032;4.376;2023-08-06T02:12:13;98039.94;;;13.92;nan
70053;BME280;57398;52.032;4.376;2023-08-06T02:15:02;98040.72;;;13.92;nan
70053;BME280;57398;52.032;4.376;2023-08-06T02:17:50;98008.50;;;13.88;nan
70053;BME280;57398;52.032;4.376;2023-08-06T02:20:38;98019.69;;;13.89;nan
70053;BME280;57398;52.032;4.376;2023-08-06T02:23:27;98023.69;;;13.86;nan
70053;BME280;57398;52.032;4.376;2023-08-06T02:26:15;98029.06;;;13.81;nan
70053;BME280;57398;52.032;4.376;2023-08-06T02:29:05;98013.09;;;13.82;nan
70053;BME280;57398;52.032;4.376;2023-08-06T02:31:53;97984.09;;;13.75;nan
70053;BME280;57398;52.032;4.376;2023-08-06T02:34:42;97757.91;;;13.76;nan
70053;BME280;57398;52.032;4.376;2023-08-06T02:37:33;97743.34;;;13.75;nan
70053;BME280;57398;52.032;4.376;2023-08-06T02:40:21;97740.28;;;13.73;nan
70053;BME280;57398;52.032;4.376;2023-08-06T02:43:09;97694.28;;;13.68;nan
70053;BME280;57398;52.032;4.376;2023-08-06T02:45:59;97676.97;;;13.64;nan
70053;BME280;57398;52.032;4.376;2023-08-06T02:48:48;97652.38;;;13.65;nan
70053;BME280;57398;52.032;4.376;2023-08-06T02:51:36;97647.63;;;13.67;nan
70053;BME280;57398;52.032;4.376;2023-08-06T02:54:24;97611.56;;;13.69;nan
70053;BME280;57398;52.032;4.376;2023-08-06T02:57:13;97629.97;;;13.72;nan
70053;BME280;57398;52.032;4.376;2023-08-06T03:00:01;97618.44;;;13.73;nan
70053;BME280;57398;52.032;4.376;2023-08-06T03:02:51;97597.88;;;13.72;nan
70053;BME280;57398;52.032;4.376;2023-08-06T03:08:27;97723.41;;;13.70;nan
70053;BME280;57398;52.032;4.376;2023-08-06T03:11:16;97722.63;;;13.70;nan
70053;BME280;57398;52.032;4.376;2023-08-06T03:14:04;97823.75;;;13.73;nan
70053;BME280;57398;52.032;4.376;2023-08-06T03:16:52;97684.41;;;13.74;nan
70053;BME280;57398;52.032;4.376;2023-08-06T03:19:42;97729.09;;;13.72;nan
70053;BME280;57398;52.032;4.376;2023-08-06T03:22:30;97716.03;;;13.72;nan
70053;BME280;57398;52.032;4.376;2023-08-06T03:25:18;97722.94;;;13.77;nan
70053;BME280;57398;52.032;4.376;2023-08-06T03:28:06;97715.84;;;13.77;nan
70053;BME280;57398;52.032;4.376;2023-08-06T03:30:59;97708.97;;;13.73;nan
70053;BME280;57398;52.032;4.376;2023-08-06T03:33:47;97712.06;;;13.66;nan
70053;BME280;57398;52.032;4.376;2023-08-06T03:36:37;97727.97;;;13.44;nan
70053;BME280;57398;52.032;4.376;2023-08-06T03:42:13;97720.81;;;13.32;nan
70053;BME280;57398;52.032;4.376;2023-08-06T03:45:02;97733.53;;;13.25;nan
70053;BME280;57398;52.032;4.376;2023-08-06T03:47:51;97744.13;;;13.19;nan
70053;BME280;57398;52.032;4.376;2023-08-06T03:50:40;97752.56;;;13.16;nan
70053;BME280;57398;52.032;4.376;2023-08-06T03:53:29;97763.44;;;13.18;nan
70053;BME280;57398;52.032;4.376;2023-08-06T03:56:17;97758.22;;;13.18;nan
70053;BME280;57398;52.032;4.376;2023-08-06T03:59:05;97770.78;;;13.16;nan
70053;BME280;57398;52.032;4.376;2023-08-06T04:01:54;97771.72;;;13.12;nan
70053;BME280;57398;52.032;4.376;2023-08-06T04:04:42;97777.28;;;13.10;nan
70053;BME280;57398;52.032;4.376;2023-08-06T04:07:31;97778.78;;;13.11;nan
70053;BME280;57398;52.032;4.376;2023-08-06T04:10:20;97771.13;;;13.06;nan
70053;BME280;57398;52.032;4.376;2023-08-06T04:16:01;97746.28;;;13.09;nan
70053;BME280;57398;52.032;4.376;2023-08-06T04:18:49;97758.09;;;13.15;nan
70053;BME280;57398;52.032;4.376;2023-08-06T04:24:25;97737.25;;;13.15;nan
70053;BME280;57398;52.032;4.376;2023-08-06T04:27:16;97813.88;;;13.14;nan
70053;BME280;57398;52.032;4.376;2023-08-06T04:30:06;97810.34;;;13.10;nan
70053;BME280;57398;52.032;4.376;2023-08-06T04:32:56;97806.81;;;13.14;nan
70053;BME280;57398;52.032;4.376;2023-08-06T04:35:45;97859.41;;;13.16;nan
70053;BME280;57398;52.032;4.376;2023-08-06T04:38:33;97846.09;;;13.18;nan
70053;BME280;57398;52.032;4.376;2023-08-06T04:41:21;97864.03;;;13.19;nan
70053;BME280;57398;52.032;4.376;2023-08-06T04:44:11;97881.34;;;13.24;nan
70053;BME280;57398;52.032;4.376;2023-08-06T04:46:59;97912.00;;;13.27;nan
70053;BME280;57398;52.032;4.376;2023-08-06T04:49:47;97909.13;;;13.29;nan
70053;BME280;57398;52.032;4.376;2023-08-06T04:52:37;97903.13;;;13.28;nan
70053;BME280;57398;52.032;4.376;2023-08-06T04:55:25;97911.88;;;13.32;nan
70053;BME280;57398;52.032;4.376;2023-08-06T05:01:03;97938.13;;;13.45;nan
70053;BME280;57398;52.032;4.376;2023-08-06T05:03:51;97931.97;;;13.49;nan
70053;BME280;57398;52.032;4.376;2023-08-06T05:06:39;97930.88;;;13.50;nan
70053;BME280;57398;52.032;4.376;2023-08-06T05:09:28;97899.75;;;13.54;nan
70053;BME280;57398;52.032;4.376;2023-08-06T05:12:16;97906.31;;;13.51;nan
70053;BME280;57398;52.032;4.376;2023-08-06T05:15:05;97879.66;;;13.54;nan
70053;BME280;57398;52.032;4.376;2023-08-06T05:17:55;97900.50;;;13.54;nan
70053;BME280;57398;52.032;4.376;2023-08-06T05:20:43;97893.75;;;13.53;nan
70053;BME280;57398;52.032;4.376;2023-08-06T05:23:32;97882.25;;;13.54;nan
70053;BME280;57398;52.032;4.376;2023-08-06T05:29:08;97866.75;;;13.58;nan
70053;BME280;57398;52.032;4.376;2023-08-06T05:31:56;97831.78;;;13.59;nan
70053;BME280;57398;52.032;4.376;2023-08-06T05:34:46;97782.81;;;13.65;nan
70053;BME280;57398;52.032;4.376;2023-08-06T05:37:34;97792.16;;;13.66;nan
70053;BME280;57398;52.032;4.376;2023-08-06T05:40:22;97771.44;;;13.69;nan
70053;BME280;57398;52.032;4.376;2023-08-06T05:43:11;97782.19;;;13.68;nan
70053;BME280;57398;52.032;4.376;2023-08-06T05:48:47;97797.94;;;13.80;nan
70053;BME280;57398;52.032;4.376;2023-08-06T05:51:38;97807.91;;;13.78;nan
70053;BME280;57398;52.032;4.376;2023-08-06T05:54:26;97803.00;;;13.76;nan
70053;BME280;57398;52.032;4.376;2023-08-06T05:57:14;97797.94;;;13.80;nan
70053;BME280;57398;52.032;4.376;2023-08-06T06:00:03;97801.31;;;13.80;nan
70053;BME280;57398;52.032;4.376;2023-08-06T06:02:53;97815.25;;;13.85;nan
70053;BME280;57398;52.032;4.376;2023-08-06T06:05:41;97830.44;;;13.91;nan
70053;BME280;57398;52.032;4.376;2023-08-06T06:08:30;97848.41;;;13.93;nan
70053;BME280;57398;52.032;4.376;2023-08-06T06:11:18;97788.03;;;13.94;nan
70053;BME280;57398;52.032;4.376;2023-08-06T06:14:08;97640.50;;;13.97;nan
70053;BME280;57398;52.032;4.376;2023-08-06T06:16:57;97322.28;;;14.00;nan
70053;BME280;57398;52.032;4.376;2023-08-06T06:19:45;97053.97;;;14.02;nan
70053;BME280;57398;52.032;4.376;2023-08-06T06:22:33;96804.22;;;14.03;nan
70053;BME280;57398;52.032;4.376;2023-08-06T06:25:23;96718.13;;;14.03;nan
70053;BME280;57398;52.032;4.376;2023-08-06T06:28:11;96736.03;;;14.04;nan
70053;BME280;57398;52.032;4.376;2023-08-06T06:31:00;96858.75;;;14.08;nan
70053;BME280;57398;52.032;4.376;2023-08-06T06:33:48;96947.16;;;14.10;nan
70053;BME280;57398;52.032;4.376;2023-08-06T06:36:36;97081.94;;;14.18;nan
70053;BME280;57398;52.032;4.376;2023-08-06T06:39:24;97226.78;;;14.24;nan
70053;BME280;57398;52.032;4.376;2023-08-06T06:42:14;97347.06;;;14.31;nan
70053;BME280;57398;52.032;4.376;2023-08-06T06:45:03;97461.94;;;14.31;nan
70053;BME280;57398;52.032;4.376;2023-08-06T06:47:52;97579.56;;;14.35;nan
70053;BME280;57398;52.032;4.376;2023-08-06T06:50:40;97712.97;;;14.42;nan
70053;BME280;57398;52.032;4.376;2023-08-06T06:53:28;97856.56;;;14.51;nan
70053;BME280;57398;52.032;4.376;2023-08-06T06:56:17;97996.19;;;14.53;nan
70053;BME280;57398;52.032;4.376;2023-08-06T06:59:06;98096.72;;;14.56;nan
70053;BME280;57398;52.032;4.376;2023-08-06T07:01:55;98199.34;;;14.56;nan
70053;BME280;57398;52.032;4.376;2023-08-06T07:04:43;98290.16;;;14.68;nan
70053;BME280;57398;52.032;4.376;2023-08-06T07:07:31;98377.47;;;14.67;nan
70053;BME280;57398;52.032;4.376;2023-08-06T07:13:07;98537.84;;;14.88;nan
70053;BME280;57398;52.032;4.376;2023-08-06T07:15:57;98637.88;;;15.03;nan
70053;BME280;57398;52.032;4.376;2023-08-06T07:18:47;98451.31;;;14.99;nan
70053;BME280;57398;52.032;4.376;2023-08-06T07:21:35;99376.09;;;14.98;nan
70053;BME280;57398;52.032;4.376;2023-08-06T07:24:23;99498.03;;;15.13;nan
70053;BME280;57398;52.032;4.376;2023-08-06T07:27:12;99547.19;;;15.35;nan
70053;BME280;57398;52.032;4.376;2023-08-06T07:30:00;99640.16;;;15.27;nan
70053;BME280;57398;52.032;4.376;2023-08-06T07:32:49;99689.13;;;15.46;nan
70053;BME280;57398;52.032;4.376;2023-08-06T07:35:38;99740.72;;;15.45;nan
70053;BME280;57398;52.032;4.376;2023-08-06T07:38:26;99776.63;;;15.64;nan
70053;BME280;57398;52.032;4.376;2023-08-06T07:41:15;99805.91;;;15.71;nan
70053;BME280;57398;52.032;4.376;2023-08-06T07:44:04;99811.84;;;15.82;nan
70053;BME280;57398;52.032;4.376;2023-08-06T07:46:52;99812.84;;;15.86;nan
70053;BME280;57398;52.032;4.376;2023-08-06T07:49:41;99879.25;;;15.66;nan
70053;BME280;57398;52.032;4.376;2023-08-06T07:52:30;99925.81;;;15.69;nan
70053;BME280;57398;52.032;4.376;2023-08-06T07:55:18;99933.53;;;15.89;nan
70053;BME280;57398;52.032;4.376;2023-08-06T07:58:07;99984.03;;;15.95;nan
70053;BME280;57398;52.032;4.376;2023-08-06T08:00:55;99997.84;;;16.06;nan
70053;BME280;57398;52.032;4.376;2023-08-06T08:03:43;99976.59;;;16.07;nan
70053;BME280;57398;52.032;4.376;2023-08-06T08:06:34;100000.66;;;15.80;nan
70053;BME280;57398;52.032;4.376;2023-08-06T08:09:22;100014.06;;;15.68;nan
70053;BME280;57398;52.032;4.376;2023-08-06T08:12:10;100013.03;;;15.64;nan
70053;BME280;57398;52.032;4.376;2023-08-06T08:14:58;100028.88;;;15.88;nan
70053;BME280;57398;52.032;4.376;2023-08-06T08:17:47;100012.19;;;16.13;nan
70053;BME280;57398;52.032;4.376;2023-08-06T08:20:35;100026.63;;;16.11;nan
70053;BME280;57398;52.032;4.376;2023-08-06T08:23:25;100063.88;;;16.03;nan
70053;BME280;57398;52.032;4.376;2023-08-06T08:26:13;100070.38;;;16.10;nan
70053;BME280;57398;52.032;4.376;2023-08-06T08:29:01;100067.56;;;16.36;nan
70053;BME280;57398;52.032;4.376;2023-08-06T08:31:49;100125.63;;;16.14;nan
70053;BME280;57398;52.032;4.376;2023-08-06T08:34:38;100127.44;;;16.19;nan
70053;BME280;57398;52.032;4.376;2023-08-06T08:37:26;100138.03;;;15.98;nan
70053;BME280;57398;52.032;4.376;2023-08-06T08:40:16;100153.59;;;16.24;nan
70053;BME280;57398;52.032;4.376;2023-08-06T08:45:53;100165.38;;;16.26;nan
70053;BME280;57398;52.032;4.376;2023-08-06T08:48:45;100185.06;;;16.19;nan
70053;BME280;57398;52.032;4.376;2023-08-06T08:51:34;100223.50;;;16.39;nan
70053;BME280;57398;52.032;4.376;2023-08-06T08:54:23;100241.09;;;16.72;nan
70053;BME280;57398;52.032;4.376;2023-08-06T08:57:13;100266.22;;;16.79;nan
70053;BME280;57398;52.032;4.376;2023-08-06T09:00:01;100257.75;;;17.74;nan
70053;BME280;57398;52.032;4.376;2023-08-06T09:02:50;100283.41;;;17.88;nan
70053;BME280;57398;52.032;4.376;2023-08-06T09:05:43;100308.88;;;18.11;nan
70053;BME280;57398;52.032;4.376;2023-08-06T09:08:35;100318.53;;;18.16;nan
70053;BME280;57398;52.032;4.376;2023-08-06T09:11:25;100367.81;;;17.47;nan
70053;BME280;57398;52.032;4.376;2023-08-06T09:14:16;100397.84;;;17.35;nan
70053;BME280;57398;52.032;4.376;2023-08-06T09:17:04;100384.50;;;17.61;nan
70053;BME280;57398;52.032;4.376;2023-08-06T09:22:41;100405.00;;;17.25;nan
70053;BME280;57398;52.032;4.376;2023-08-06T09:25:31;100369.81;;;17.60;nan
70053;BME280;57398;52.032;4.376;2023-08-06T09:28:19;100313.59;;;18.14;nan
70053;BME280;57398;52.032;4.376;2023-08-06T09:31:09;100367.88;;;17.42;nan
70053;BME280;57398;52.032;4.376;2023-08-06T09:33:59;100404.50;;;17.17;nan
70053;BME280;57398;52.032;4.376;2023-08-06T09:36:48;100388.84;;;17.07;nan
70053;BME280;57398;52.032;4.376;2023-08-06T09:39:38;100384.50;;;17.27;nan
70053;BME280;57398;52.032;4.376;2023-08-06T09:42:28;100383.59;;;18.29;nan
70053;BME280;57398;52.032;4.376;2023-08-06T09:45:16;100425.94;;;17.69;nan
70053;BME280;57398;52.032;4.376;2023-08-06T09:48:07;100435.78;;;17.53;nan
70053;BME280;57398;52.032;4.376;2023-08-06T09:50:56;100438.28;;;17.69;nan
70053;BME280;57398;52.032;4.376;2023-08-06T09:53:45;100454.28;;;17.72;nan
70053;BME280;57398;52.032;4.376;2023-08-06T09:56:35;100440.94;;;18.94;nan
70053;BME280;57398;52.032;4.376;2023-08-06T10:02:13;100513.78;;;17.53;nan
70053;BME280;57398;52.032;4.376;2023-08-06T10:05:04;100523.88;;;17.30;nan
70053;BME280;57398;52.032;4.376;2023-08-06T10:07:52;100536.03;;;17.11;nan
70053;BME280;57398;52.032;4.376;2023-08-06T10:10:43;100507.25;;;17.50;nan
70053;BME280;57398;52.032;4.376;2023-08-06T10:13:33;100518.75;;;17.59;nan
70053;BME280;57398;52.032;4.376;2023-08-06T10:16:23;100525.03;;;18.03;nan
70053;BME280;57398;52.032;4.376;2023-08-06T10:19:12;100533.47;;;18.29;nan
70053;BME280;57398;52.032;4.376;2023-08-06T10:22:11;100530.81;;;17.61;nan
70053;BME280;57398;52.032;4.376;2023-08-06T10:25:03;100511.25;;;17.37;nan
70053;BME280;57398;52.032;4.376;2023-08-06T10:27:55;100450.63;;;18.03;nan
70053;BME280;57398;52.032;4.376;2023-08-06T10:30:45;100461.28;;;18.16;nan
70053;BME280;57398;52.032;4.376;2023-08-06T10:33:41;100481.63;;;18.06;nan
70053;BME280;57398;52.032;4.376;2023-08-06T10:36:30;100498.59;;;17.45;nan
70053;BME280;57398;52.032;4.376;2023-08-06T10:39:21;100483.94;;;18.12;nan
70053;BME280;57398;52.032;4.376;2023-08-06T10:42:21;100524.00;;;17.99;nan
70053;BME280;57398;52.032;4.376;2023-08-06T10:45:16;100518.78;;;18.76;nan
70053;BME280;57398;52.032;4.376;2023-08-06T10:48:04;100561.31;;;18.59;nan
70053;BME280;57398;52.032;4.376;2023-08-06T10:50:53;100606.34;;;18.24;nan
70053;BME280;57398;52.032;4.376;2023-08-06T10:53:44;100667.09;;;18.56;nan
70053;BME280;57398;52.032;4.376;2023-08-06T10:56:39;100643.41;;;18.56;nan
70053;BME280;57398;52.032;4.376;2023-08-06T10:59:28;100648.34;;;17.94;nan
70053;BME280;57398;52.032;4.376;2023-08-06T11:02:16;100645.94;;;17.98;nan
70053;BME280;57398;52.032;4.376;2023-08-06T11:05:09;100620.53;;;18.23;nan
70053;BME280;57398;52.032;4.376;2023-08-06T11:07:58;100590.47;;;18.34;nan
70053;BME280;57398;52.032;4.376;2023-08-06T11:10:46;100592.97;;;18.20;nan
70053;BME280;57398;52.032;4.376;2023-08-06T11:13:50;100564.44;;;18.32;nan
70053;BME280;57398;52.032;4.376;2023-08-06T11:16:38;100549.91;;;18.11;nan
70053;BME280;57398;52.032;4.376;2023-08-06T11:19:27;100537.84;;;17.15;nan
70053;BME280;57398;52.032;4.376;2023-08-06T11:25:05;100404.03;;;16.50;nan
70053;BME280;57398;52.032;4.376;2023-08-06T11:27:53;100314.44;;;16.33;nan
70053;BME280;57398;52.032;4.376;2023-08-06T11:33:33;100242.38;;;16.30;nan
70053;BME280;57398;52.032;4.376;2023-08-06T11:36:29;100311.72;;;16.53;nan
70053;BME280;57398;52.032;4.376;2023-08-06T11:39:17;100396.34;;;16.74;nan
70053;BME280;57398;52.032;4.376;2023-08-06T11:42:06;100445.41;;;16.79;nan
70053;BME280;57398;52.032;4.376;2023-08-06T11:44:56;100484.34;;;17.06;nan
70053;BME280;57398;52.032;4.376;2023-08-06T11:47:51;100513.41;;;17.20;nan
70053;BME280;57398;52.032;4.376;2023-08-06T11:50:40;100541.84;;;17.03;nan
70053;BME280;57398;52.032;4.376;2023-08-06T11:53:28;100550.75;;;17.12;nan
70053;BME280;57398;52.032;4.376;2023-08-06T11:56:17;100576.44;;;17.15;nan
70053;BME280;57398;52.032;4.376;2023-08-06T11:59:05;100561.91;;;17.43;nan
70053;BME280;57398;52.032;4.376;2023-08-06T12:01:53;100568.25;;;17.87;nan
70053;BME280;57398;52.032;4.376;2023-08-06T12:05:03;100584.09;;;17.61;nan
70053;BME280;57398;52.032;4.376;2023-08-06T12:07:54;100559.91;;;17.69;nan
70053;BME280;57398;52.032;4.376;2023-08-06T12:10:43;100560.72;;;17.10;nan
70053;BME280;57398;52.032;4.376;2023-08-06T12:13:33;100557.81;;;17.16;nan
70053;BME280;57398;52.032;4.376;2023-08-06T12:16:21;100555.31;;;17.41;nan
70053;BME280;57398;52.032;4.376;2023-08-06T12:19:10;100537.00;;;17.80;nan
70053;BME280;57398;52.032;4.376;2023-08-06T12:22:00;100601.00;;;17.99;nan
70053;BME280;57398;52.032;4.376;2023-08-06T12:24:48;100590.16;;;18.40;nan
70053;BME280;57398;52.032;4.376;2023-08-06T12:27:37;100570.00;;;19.32;nan
70053;BME280;57398;52.032;4.376;2023-08-06T12:30:26;100609.69;;;18.93;nan
70053;BME280;57398;52.032;4.376;2023-08-06T12:33:14;100629.34;;;18.08;nan
70053;BME280;57398;52.032;4.376;2023-08-06T12:36:03;100605.53;;;18.23;nan
70053;BME280;57398;52.032;4.376;2023-08-06T12:38:53;100620.69;;;18.36;nan
70053;BME280;57398;52.032;4.376;2023-08-06T12:41:41;100667.53;;;17.90;nan
70053;BME280;57398;52.032;4.376;2023-08-06T12:44:30;100643.00;;;18.05;nan
70053;BME280;57398;52.032;4.376;2023-08-06T12:47:19;100610.97;;;18.66;nan
70053;BME280;57398;52.032;4.376;2023-08-06T12:50:08;100622.03;;;18.34;nan
70053;BME280;57398;52.032;4.376;2023-08-06T12:52:57;100620.44;;;18.38;nan
70053;BME280;57398;52.032;4.376;2023-08-06T12:55:47;100614.75;;;18.55;nan
70053;BME280;57398;52.032;4.376;2023-08-06T12:58:35;100650.75;;;17.80;nan
70053;BME280;57398;52.032;4.376;2023-08-06T13:01:23;100647.28;;;17.30;nan
70053;BME280;57398;52.032;4.376;2023-08-06T13:04:11;100642.03;;;17.25;nan
70053;BME280;57398;52.032;4.376;2023-08-06T13:07:08;100628.97;;;17.05;nan
70053;BME280;57398;52.032;4.376;2023-08-06T13:09:56;100615.06;;;17.09;nan
70053;BME280;57398;52.032;4.376;2023-08-06T13:12:46;100619.31;;;16.80;nan
70053;BME280;57398;52.032;4.376;2023-08-06T13:15:34;100613.25;;;16.94;nan
70053;BME280;57398;52.032;4.376;2023-08-06T13:18:22;100631.06;;;16.72;nan
70053;BME280;57398;52.032;4.376;2023-08-06T13:21:10;100617.44;;;16.19;nan
70053;BME280;57398;52.032;4.376;2023-08-06T13:23:59;100519.97;;;15.96;nan
70053;BME280;57398;52.032;4.376;2023-08-06T13:26:49;100444.41;;;15.06;nan
70053;BME280;57398;52.032;4.376;2023-08-06T13:29:38;100060.47;;;14.87;nan
70053;BME280;57398;52.032;4.376;2023-08-06T13:32:26;99818.94;;;14.78;nan
70053;BME280;57398;52.032;4.376;2023-08-06T13:35:14;99609.16;;;14.62;nan
70053;BME280;57398;52.032;4.376;2023-08-06T13:38:02;99457.69;;;14.76;nan
70053;BME280;57398;52.032;4.376;2023-08-06T13:40:51;99418.63;;;14.61;nan
70053;BME280;57398;52.032;4.376;2023-08-06T13:43:39;99400.16;;;14.52;nan
70053;BME280;57398;52.032;4.376;2023-08-06T13:46:29;99440.94;;;14.24;nan
70053;BME280;57398;52.032;4.376;2023-08-06T13:49:17;99435.84;;;14.14;nan
70053;BME280;57398;52.032;4.376;2023-08-06T13:52:05;99409.31;;;14.01;nan
70053;BME280;57398;52.032;4.376;2023-08-06T13:55:07;99320.22;;;13.84;nan
70053;BME280;57398;52.032;4.376;2023-08-06T13:57:56;99294.03;;;13.65;nan
70053;BME280;57398;52.032;4.376;2023-08-06T14:00:44;99264.09;;;13.57;nan
70053;BME280;57398;52.032;4.376;2023-08-06T14:03:34;99268.09;;;13.74;nan
70053;BME280;57398;52.032;4.376;2023-08-06T14:06:22;99255.38;;;13.67;nan
70053;BME280;57398;52.032;4.376;2023-08-06T14:09:11;99276.75;;;13.74;nan
70053;BME280;57398;52.032;4.376;2023-08-06T14:14:49;99296.44;;;13.86;nan
70053;BME280;57398;52.032;4.376;2023-08-06T14:17:38;99320.22;;;13.84;nan
70053;BME280;57398;52.032;4.376;2023-08-06T14:20:28;99350.91;;;13.92;nan
70053;BME280;57398;52.032;4.376;2023-08-06T14:23:17;99417.09;;;13.77;nan
70053;BME280;57398;52.032;4.376;2023-08-06T14:26:06;99430.97;;;13.73;nan
70053;BME280;57398;52.032;4.376;2023-08-06T14:28:54;99420.22;;;13.79;nan
70053;BME280;57398;52.032;4.376;2023-08-06T14:31:42;99426.31;;;13.99;nan
70053;BME280;57398;52.032;4.376;2023-08-06T14:34:30;99464.13;;;14.07;nan
70053;BME280;57398;52.032;4.376;2023-08-06T14:37:20;99505.84;;;14.12;nan
70053;BME280;57398;52.032;4.376;2023-08-06T14:40:09;99571.00;;;14.27;nan
70053;BME280;57398;52.032;4.376;2023-08-06T14:42:57;99624.88;;;14.52;nan
70053;BME280;57398;52.032;4.376;2023-08-06T14:45:48;99684.19;;;14.52;nan
70053;BME280;57398;52.032;4.376;2023-08-06T14:48:36;99822.72;;;14.46;nan
70053;BME280;57398;52.032;4.376;2023-08-06T14:51:25;99871.81;;;14.50;nan
70053;BME280;57398;52.032;4.376;2023-08-06T14:54:16;99930.66;;;14.42;nan
70053;BME280;57398;52.032;4.376;2023-08-06T14:57:05;99958.34;;;14.48;nan
70053;BME280;57398;52.032;4.376;2023-08-06T14:59:54;99965.13;;;14.49;nan
70053;BME280;57398;52.032;4.376;2023-08-06T15:02:42;100004.59;;;14.42;nan
70053;BME280;57398;52.032;4.376;2023-08-06T15:05:30;100040.66;;;14.56;nan
70053;BME280;57398;52.032;4.376;2023-08-06T15:08:19;100063.41;;;14.50;nan
70053;BME280;57398;52.032;4.376;2023-08-06T15:11:08;100115.13;;;14.38;nan
70053;BME280;57398;52.032;4.376;2023-08-06T15:13:56;100140.75;;;14.56;nan
70053;BME280;57398;52.032;4.376;2023-08-06T15:16:47;100204.28;;;14.77;nan
70053;BME280;57398;52.032;4.376;2023-08-06T15:19:35;100226.50;;;14.75;nan
70053;BME280;57398;52.032;4.376;2023-08-06T15:22:23;100271.97;;;14.58;nan
70053;BME280;57398;52.032;4.376;2023-08-06T15:25:11;100304.81;;;14.39;nan
70053;BME280;57398;52.032;4.376;2023-08-06T15:28:01;100279.72;;;13.75;nan
70053;BME280;57398;52.032;4.376;2023-08-06T15:30:50;100201.84;;;13.56;nan
70053;BME280;57398;52.032;4.376;2023-08-06T15:33:38;100142.84;;;13.50;nan
70053;BME280;57398;52.032;4.376;2023-08-06T15:36:26;100110.00;;;13.59;nan
70053;BME280;57398;52.032;4.376;2023-08-06T15:39:15;100126.03;;;13.83;nan
70053;BME280;57398;52.032;4.376;2023-08-06T15:42:03;100156.34;;;14.05;nan
70053;BME280;57398;52.032;4.376;2023-08-06T15:44:53;100181.22;;;14.28;nan
70053;BME280;57398;52.032;4.376;2023-08-06T15:47:41;100222.78;;;14.40;nan
70053;BME280;57398;52.032;4.376;2023-08-06T15:50:29;100270.41;;;14.57;nan
70053;BME280;57398;52.032;4.376;2023-08-06T15:53:18;100290.56;;;14.72;nan
70053;BME280;57398;52.032;4.376;2023-08-06T15:58:54;100369.84;;;14.98;nan
70053;BME280;57398;52.032;4.376;2023-08-06T16:01:43;100447.25;;;14.89;nan
70053;BME280;57398;52.032;4.376;2023-08-06T16:04:32;100484.31;;;14.81;nan
70053;BME280;57398;52.032;4.376;2023-08-06T16:07:20;100516.25;;;14.83;nan
70053;BME280;57398;52.032;4.376;2023-08-06T16:10:10;100560.50;;;14.95;nan